Time;durP1;ratioP1;P1;durP2;ratioP2;P2;SDS_P1;SDS_P2;PMS_P1;PMS_P2;Temp;Humidity;BMP_temperature;BMP_pressure;BME280_temperature;BME280_humidity;BME280_pressure;Samples;Min_cycle;Max_cycle;Signal;HPM_P1;HPM_P2
2021/07/03 00:00:06;;;;;;;8.77;7.87;;;14.60;99.90;;;;;;5101573;28;20458;-68
2021/07/03 00:02:33;;;;;;;8.23;7.43;;;14.60;99.90;;;;;;5114981;27;20446;-70
2021/07/03 00:05:00;;;;;;;8.67;7.87;;;14.60;99.90;;;;;;5132917;27;20471;-70
2021/07/03 00:07:27;;;;;;;10.60;8.27;;;14.60;99.90;;;;;;5124037;27;20482;-70
2021/07/03 00:09:55;;;;;;;10.37;7.70;;;14.70;99.90;;;;;;5121942;27;20522;-70
2021/07/03 00:12:22;;;;;;;12.17;7.07;;;14.60;99.90;;;;;;5119215;27;21975;-70
2021/07/03 00:14:49;;;;;;;7.90;7.10;;;14.50;99.90;;;;;;5112249;28;20811;-70
2021/07/03 00:17:16;;;;;;;9.40;7.37;;;14.50;99.90;;;;;;5111878;28;20456;-70
2021/07/03 00:19:43;;;;;;;10.50;8.07;;;14.60;99.90;;;;;;5112502;28;20992;-70
2021/07/03 00:22:10;;;;;;;8.47;7.60;;;14.50;99.90;;;;;;5111995;28;21052;-70
2021/07/03 00:24:36;;;;;;;8.43;7.47;;;14.50;99.90;;;;;;5112173;28;20486;-70
2021/07/03 00:27:05;;;;;;;15.63;9.03;;;14.50;99.90;;;;;;5115229;27;20477;-70
2021/07/03 00:29:32;;;;;;;9.37;7.47;;;14.60;99.90;;;;;;5129117;27;20535;-70
2021/07/03 00:31:59;;;;;;;9.90;8.17;;;14.70;99.90;;;;;;5114592;27;20451;-70
2021/07/03 00:34:26;;;;;;;10.57;8.53;;;14.90;99.90;;;;;;5111175;28;20515;-70
2021/07/03 00:36:52;;;;;;;9.23;7.60;;;15.00;99.90;;;;;;5112503;28;20475;-70
2021/07/03 00:39:19;;;;;;;10.10;7.13;;;14.90;99.90;;;;;;5111344;28;20452;-70
2021/07/03 00:41:46;;;;;;;10.27;8.00;;;14.90;99.90;;;;;;5126335;27;20476;-70
2021/07/03 00:44:25;;;;;;;9.43;6.30;;;14.70;99.90;;;;;;5121219;27;20446;-70
2021/07/03 00:46:52;;;;;;;11.30;8.50;;;14.70;99.90;;;;;;5111559;28;21009;-69
2021/07/03 00:49:19;;;;;;;8.63;7.83;;;14.70;99.90;;;;;;5124571;27;20442;-70
2021/07/03 00:51:46;;;;;;;9.80;7.37;;;14.70;99.90;;;;;;5117743;27;20441;-70
2021/07/03 00:54:13;;;;;;;10.67;7.63;;;14.80;99.90;;;;;;5105304;28;21003;-70
2021/07/03 00:56:40;;;;;;;9.93;8.07;;;14.80;99.90;;;;;;5130751;27;20818;-70
2021/07/03 00:59:07;;;;;;;9.47;6.90;;;14.60;99.90;;;;;;5110412;28;20551;-70
2021/07/03 01:01:35;;;;;;;9.40;7.23;;;14.60;99.90;;;;;;5111477;28;20523;-70
2021/07/03 01:04:02;;;;;;;10.60;7.70;;;14.50;99.90;;;;;;5106056;28;20482;-70
2021/07/03 01:06:29;;;;;;;10.33;7.40;;;14.40;99.90;;;;;;5111363;28;20530;-69
2021/07/03 01:08:56;;;;;;;9.53;7.57;;;14.20;99.90;;;;;;5106568;28;20475;-70
2021/07/03 01:11:27;;;;;;;12.00;7.10;;;14.20;99.90;;;;;;5111598;28;20535;-70
2021/07/03 01:13:54;;;;;;;8.83;7.33;;;14.50;99.90;;;;;;5121374;27;20543;-70
2021/07/03 01:16:22;;;;;;;7.80;6.37;;;14.50;99.90;;;;;;5125692;27;20439;-70
2021/07/03 01:18:50;;;;;;;7.90;6.97;;;14.60;99.90;;;;;;5113807;28;20451;-70
2021/07/03 01:21:17;;;;;;;9.17;7.30;;;14.60;99.90;;;;;;5121971;27;20950;-70
2021/07/03 01:23:46;;;;;;;10.97;7.00;;;14.60;99.90;;;;;;5131938;27;20443;-70
2021/07/03 01:26:13;;;;;;;8.47;7.57;;;14.70;99.90;;;;;;5126573;27;20446;-70
2021/07/03 01:28:40;;;;;;;8.27;6.73;;;14.80;99.90;;;;;;5111216;28;20467;-70
2021/07/03 01:31:07;;;;;;;9.47;7.00;;;14.80;99.90;;;;;;5110592;28;20539;-70
2021/07/03 01:33:34;;;;;;;10.53;7.23;;;14.70;99.90;;;;;;5111183;28;20550;-70
2021/07/03 01:36:01;;;;;;;8.27;7.17;;;14.70;99.90;;;;;;5111336;28;20449;-69
2021/07/03 01:38:28;;;;;;;12.80;7.63;;;14.50;99.90;;;;;;5115735;28;20453;-70
2021/07/03 01:40:57;;;;;;;8.00;6.70;;;14.50;99.90;;;;;;5116546;28;20539;-69
2021/07/03 01:43:25;;;;;;;9.30;7.47;;;14.60;99.90;;;;;;5120263;28;20452;-69
2021/07/03 01:45:53;;;;;;;7.60;6.90;;;14.50;99.90;;;;;;5131733;28;20453;-69
2021/07/03 01:48:25;;;;;;;13.20;7.57;;;14.50;99.90;;;;;;5115922;28;20562;-70
2021/07/03 01:50:52;;;;;;;7.40;6.60;;;14.40;99.90;;;;;;5111250;28;20458;-70
2021/07/03 01:53:19;;;;;;;16.73;8.00;;;14.40;99.90;;;;;;5110168;28;20439;-70
2021/07/03 01:55:46;;;;;;;9.10;7.33;;;14.20;99.90;;;;;;5111183;27;20483;-69
2021/07/03 01:58:18;;;;;;;8.30;7.37;;;14.00;99.90;;;;;;5113363;28;20461;-69
2021/07/03 02:00:45;;;;;;;8.17;6.97;;;13.90;99.90;;;;;;5109643;28;20464;-69
2021/07/03 02:03:12;;;;;;;8.83;6.93;;;13.80;99.90;;;;;;5118268;28;20494;-70
2021/07/03 02:05:39;;;;;;;8.07;6.83;;;13.70;99.90;;;;;;5129656;28;20468;-69
2021/07/03 02:08:06;;;;;;;10.33;7.53;;;13.70;99.90;;;;;;5110096;28;20487;-70
2021/07/03 02:10:33;;;;;;;8.20;6.80;;;13.70;99.90;;;;;;5126958;28;20817;-69
2021/07/03 02:13:00;;;;;;;9.43;7.23;;;13.50;99.90;;;;;;5111322;28;20526;-69
2021/07/03 02:15:28;;;;;;;12.30;7.90;;;13.60;99.90;;;;;;5111160;28;20447;-70
2021/07/03 02:17:55;;;;;;;11.43;8.13;;;13.60;99.90;;;;;;5117995;28;20534;-70
2021/07/03 02:20:22;;;;;;;11.33;7.30;;;13.50;99.90;;;;;;5127186;28;20453;-70
2021/07/03 02:22:49;;;;;;;9.70;8.23;;;13.60;99.90;;;;;;5113174;28;20448;-70
2021/07/03 02:25:17;;;;;;;12.03;8.57;;;13.70;99.90;;;;;;5112618;27;20454;-70
2021/07/03 02:27:44;;;;;;;7.33;6.50;;;13.80;99.90;;;;;;5126888;27;20499;-70
2021/07/03 02:30:15;;;;;;;11.00;7.30;;;13.80;99.90;;;;;;5131638;27;20530;-69
2021/07/03 02:32:43;;;;;;;10.30;7.83;;;13.80;99.90;;;;;;5127652;27;20541;-70
2021/07/03 02:35:12;;;;;;;10.07;8.10;;;13.80;99.90;;;;;;5132854;27;20525;-69
2021/07/03 02:37:39;;;;;;;9.83;7.27;;;13.80;99.90;;;;;;5114068;28;20475;-70
2021/07/03 02:40:09;;;;;;;9.53;7.07;;;13.70;99.90;;;;;;5130099;27;20446;-70
2021/07/03 02:42:36;;;;;;;9.40;7.63;;;13.70;99.90;;;;;;5127378;27;20966;-70
2021/07/03 02:45:04;;;;;;;10.83;7.70;;;13.70;99.90;;;;;;5118589;27;20438;-70
2021/07/03 02:47:31;;;;;;;7.70;6.60;;;13.80;99.90;;;;;;5128432;27;21283;-70
2021/07/03 02:49:59;;;;;;;8.97;7.13;;;13.60;99.90;;;;;;5117775;27;20458;-69
2021/07/03 02:52:26;;;;;;;11.07;7.80;;;13.60;99.90;;;;;;5112057;27;20451;-70
2021/07/03 02:54:53;;;;;;;8.13;6.60;;;13.60;99.90;;;;;;5114011;28;20447;-69
2021/07/03 02:57:20;;;;;;;13.30;8.17;;;13.70;99.90;;;;;;5113676;28;20440;-70
2021/07/03 02:59:47;;;;;;;9.57;7.80;;;13.80;99.90;;;;;;5117013;27;20483;-70
2021/07/03 03:02:13;;;;;;;9.23;8.00;;;13.80;99.90;;;;;;5113453;28;20538;-70
2021/07/03 03:04:40;;;;;;;9.17;6.80;;;13.80;99.90;;;;;;5117569;27;20506;-70
2021/07/03 03:07:09;;;;;;;10.83;7.50;;;13.70;99.90;;;;;;5114282;27;20479;-70
2021/07/03 03:09:36;;;;;;;11.67;7.60;;;13.70;99.90;;;;;;5126272;27;20554;-70
2021/07/03 03:12:03;;;;;;;9.10;6.83;;;13.60;99.90;;;;;;5124548;27;20542;-70
2021/07/03 03:14:30;;;;;;;9.97;8.37;;;13.60;99.90;;;;;;5129507;27;20463;-70
2021/07/03 03:16:57;;;;;;;7.60;6.40;;;13.50;99.90;;;;;;5126227;27;20500;-70
2021/07/03 03:19:24;;;;;;;7.67;6.70;;;13.50;99.90;;;;;;5121920;27;20526;-70
2021/07/03 03:21:51;;;;;;;9.30;6.83;;;13.50;99.90;;;;;;5134544;27;20451;-70
2021/07/03 03:24:20;;;;;;;9.60;6.23;;;13.40;99.90;;;;;;5126792;27;20582;-70
2021/07/03 03:26:47;;;;;;;8.27;6.33;;;13.60;99.90;;;;;;5122302;27;20539;-70
2021/07/03 03:29:14;;;;;;;8.50;6.40;;;13.50;99.90;;;;;;5120443;27;20565;-70
2021/07/03 03:31:41;;;;;;;10.37;7.47;;;13.50;99.90;;;;;;5116747;27;20447;-70
2021/07/03 03:34:08;;;;;;;8.80;7.27;;;13.40;99.90;;;;;;5112802;28;20534;-70
2021/07/03 03:36:35;;;;;;;10.70;8.13;;;13.40;99.90;;;;;;5113235;28;20966;-70
2021/07/03 03:39:02;;;;;;;9.90;7.07;;;13.30;99.90;;;;;;5120301;27;20475;-70
2021/07/03 03:41:30;;;;;;;8.57;7.40;;;13.40;99.90;;;;;;5113662;28;20452;-70
2021/07/03 03:43:57;;;;;;;10.60;7.47;;;13.40;99.90;;;;;;5113228;28;20534;-71
2021/07/03 03:46:24;;;;;;;9.40;7.30;;;13.40;99.90;;;;;;5112865;28;20451;-70
2021/07/03 03:48:51;;;;;;;10.07;7.53;;;13.40;99.90;;;;;;5113122;28;20558;-70
2021/07/03 03:51:18;;;;;;;9.70;6.63;;;13.60;99.90;;;;;;5112711;28;20444;-70
2021/07/03 03:53:45;;;;;;;15.47;7.90;;;13.70;99.90;;;;;;5113098;28;20527;-70
2021/07/03 03:56:12;;;;;;;9.60;7.70;;;13.60;99.90;;;;;;5114267;27;20482;-70
2021/07/03 03:58:40;;;;;;;10.40;6.87;;;13.60;99.90;;;;;;5105204;28;20457;-70
2021/07/03 04:01:07;;;;;;;8.50;7.17;;;13.80;99.90;;;;;;5112878;27;20477;-70
2021/07/03 04:03:34;;;;;;;7.30;6.60;;;13.90;99.90;;;;;;5112733;28;20490;-70
2021/07/03 04:06:01;;;;;;;8.30;6.57;;;13.80;99.90;;;;;;5112549;28;20447;-70
2021/07/03 04:08:28;;;;;;;7.47;6.47;;;13.80;99.90;;;;;;5112640;28;20475;-70
2021/07/03 04:10:54;;;;;;;10.13;7.30;;;13.80;99.90;;;;;;5112825;28;20884;-70
2021/07/03 04:13:21;;;;;;;8.47;6.20;;;13.80;99.90;;;;;;5123912;27;20537;-70
2021/07/03 04:15:49;;;;;;;8.60;6.73;;;13.60;99.90;;;;;;5121280;27;20446;-70
2021/07/03 04:18:16;;;;;;;13.50;8.27;;;13.70;99.90;;;;;;5111984;28;20439;-70
2021/07/03 04:20:43;;;;;;;12.10;7.77;;;13.60;99.90;;;;;;5119360;27;20526;-70
2021/07/03 04:23:10;;;;;;;9.90;7.20;;;13.60;99.90;;;;;;5111957;28;20482;-70
2021/07/03 04:25:37;;;;;;;8.43;6.80;;;13.70;99.90;;;;;;5112037;28;20534;-71
2021/07/03 04:28:04;;;;;;;10.50;7.17;;;13.90;99.90;;;;;;5111682;28;21034;-70
2021/07/03 04:30:31;;;;;;;10.93;7.17;;;13.80;99.90;;;;;;5112265;28;20527;-70
2021/07/03 04:32:59;;;;;;;8.77;7.20;;;13.90;99.90;;;;;;5112626;28;20547;-70
2021/07/03 04:35:26;;;;;;;9.67;7.20;;;13.90;99.90;;;;;;5097976;28;21011;-70
2021/07/03 04:37:53;;;;;;;7.13;6.43;;;13.90;99.90;;;;;;5112125;28;21011;-70
2021/07/03 04:40:20;;;;;;;9.07;7.17;;;13.90;99.90;;;;;;5118511;27;20449;-70
2021/07/03 04:42:47;;;;;;;8.83;6.80;;;13.90;99.90;;;;;;5131151;27;20794;-70
2021/07/03 04:45:14;;;;;;;9.37;7.40;;;14.00;99.90;;;;;;5111276;28;20483;-70
2021/07/03 04:47:41;;;;;;;9.20;7.13;;;14.00;99.90;;;;;;5107645;28;20454;-69
2021/07/03 04:50:10;;;;;;;8.63;7.27;;;14.10;99.90;;;;;;5119527;27;20486;-69
2021/07/03 04:52:38;;;;;;;8.20;7.37;;;14.20;99.90;;;;;;5099438;27;20448;-70
2021/07/03 04:55:06;;;;;;;8.60;7.70;;;14.20;99.90;;;;;;5110814;28;20451;-70
2021/07/03 04:57:33;;;;;;;11.63;8.70;;;14.30;99.90;;;;;;5112890;27;20467;-69
2021/07/03 04:59:59;;;;;;;12.70;6.80;;;14.50;99.90;;;;;;5111832;28;20455;-70
2021/07/03 05:02:26;;;;;;;9.20;7.07;;;14.60;99.90;;;;;;5125203;27;20462;-69
2021/07/03 05:04:53;;;;;;;10.13;7.33;;;14.60;99.90;;;;;;5120231;27;20831;-70
2021/07/03 05:07:21;;;;;;;13.80;7.40;;;14.70;99.90;;;;;;5126505;27;20446;-70
2021/07/03 05:09:48;;;;;;;9.33;7.00;;;14.70;99.90;;;;;;5125601;27;20471;-70
2021/07/03 05:12:15;;;;;;;9.17;6.53;;;14.80;99.90;;;;;;5113699;27;20842;-70
2021/07/03 05:14:43;;;;;;;8.83;6.20;;;14.80;99.90;;;;;;5127624;27;20540;-70
2021/07/03 05:17:10;;;;;;;8.90;7.70;;;15.00;99.90;;;;;;5115207;27;20448;-70
2021/07/03 05:19:37;;;;;;;9.70;7.03;;;15.00;99.90;;;;;;5111746;28;20531;-70
2021/07/03 05:22:04;;;;;;;7.63;6.33;;;15.10;99.90;;;;;;5111273;28;20558;-70
2021/07/03 05:24:32;;;;;;;8.07;7.20;;;15.30;99.90;;;;;;5111400;28;20515;-70
2021/07/03 05:26:59;;;;;;;6.90;6.10;;;15.30;99.90;;;;;;5111425;27;20483;-70
2021/07/03 05:29:26;;;;;;;8.10;6.33;;;15.60;99.90;;;;;;5110534;28;20582;-70
2021/07/03 05:31:58;;;;;;;8.37;6.93;;;15.50;99.90;;;;;;5111221;28;20451;-70
2021/07/03 05:34:25;;;;;;;7.07;6.20;;;15.70;99.90;;;;;;5114558;28;20463;-70
2021/07/03 05:36:52;;;;;;;8.80;7.23;;;15.80;99.90;;;;;;5111035;28;20578;-70
2021/07/03 05:39:19;;;;;;;8.47;6.37;;;15.90;99.90;;;;;;5110466;28;20451;-70
2021/07/03 05:41:47;;;;;;;7.77;6.13;;;15.90;99.90;;;;;;5111066;28;20443;-70
2021/07/03 05:44:14;;;;;;;8.53;6.30;;;16.10;99.90;;;;;;5110060;28;20577;-70
2021/07/03 05:46:42;;;;;;;7.77;7.00;;;16.10;99.90;;;;;;5129531;28;20447;-70
2021/07/03 05:49:09;;;;;;;7.77;7.07;;;16.20;99.90;;;;;;5111522;28;20828;-71
2021/07/03 05:51:37;;;;;;;7.47;6.00;;;16.30;99.90;;;;;;5111231;28;20539;-71
2021/07/03 05:54:04;;;;;;;6.90;6.13;;;16.40;99.90;;;;;;5112873;28;20500;-71
2021/07/03 05:56:31;;;;;;;9.03;7.17;;;16.50;99.90;;;;;;5127395;28;20940;-70
2021/07/03 05:59:01;;;;;;;11.70;6.50;;;16.60;99.90;;;;;;5100819;28;20467;-70
2021/07/03 06:01:28;;;;;;;10.50;6.20;;;16.70;99.90;;;;;;5105325;27;20806;-70
2021/07/03 06:03:55;;;;;;;7.57;6.50;;;16.80;1.00;;;;;;5120642;27;20485;-70
2021/07/03 06:06:21;;;;;;;6.50;5.67;;;17.00;1.00;;;;;;5114424;28;21024;-70
2021/07/03 06:08:48;;;;;;;8.40;6.30;;;17.10;1.00;;;;;;5126489;27;20483;-70
2021/07/03 06:11:16;;;;;;;8.17;6.33;;;17.30;99.90;;;;;;5102360;28;21010;-71
2021/07/03 06:13:43;;;;;;;8.60;6.43;;;17.30;99.90;;;;;;5114162;28;20443;-70
2021/07/03 06:16:11;;;;;;;6.40;5.80;;;17.40;99.90;;;;;;5114590;28;20857;-70
2021/07/03 06:18:38;;;;;;;7.00;6.30;;;17.50;99.90;;;;;;5123607;27;20448;-70
2021/07/03 06:21:05;;;;;;;6.40;5.80;;;17.60;1.00;;;;;;5114350;28;20511;-70
2021/07/03 06:23:32;;;;;;;7.70;6.50;;;17.70;1.00;;;;;;5114324;28;20443;-71
2021/07/03 06:26:00;;;;;;;7.90;6.50;;;17.70;1.00;;;;;;5115283;28;20530;-70
2021/07/03 06:28:27;;;;;;;7.30;6.10;;;18.00;1.00;;;;;;5114713;28;20534;-70
2021/07/03 06:30:54;;;;;;;6.03;5.43;;;18.00;99.90;;;;;;5124958;27;20454;-70
2021/07/03 06:33:22;;;;;;;6.37;5.67;;;18.00;1.00;;;;;;5128783;27;20492;-70
2021/07/03 06:35:49;;;;;;;8.43;6.20;;;18.20;51.10;;;;;;5114860;27;20473;-70
2021/07/03 06:38:16;;;;;;;6.97;6.27;;;18.30;99.90;;;;;;5113926;28;20454;-70
2021/07/03 06:40:43;;;;;;;6.40;5.60;;;18.40;1.00;;;;;;5114659;28;20458;-71
2021/07/03 06:43:09;;;;;;;7.57;6.03;;;18.50;46.20;;;;;;5113728;28;21023;-71
2021/07/03 06:45:36;;;;;;;7.23;6.00;;;18.50;1.00;;;;;;5125003;27;20457;-71
2021/07/03 06:48:03;;;;;;;6.47;5.77;;;18.70;99.90;;;;;;5128085;27;21003;-71
2021/07/03 06:50:32;;;;;;;6.73;5.23;;;18.80;14.10;;;;;;5114468;28;20907;-71
2021/07/03 06:52:58;;;;;;;6.63;5.93;;;18.90;1.00;;;;;;5114600;28;20870;-71
2021/07/03 06:55:25;;;;;;;6.67;6.00;;;19.10;1.00;;;;;;5113666;27;20467;-70
2021/07/03 06:57:52;;;;;;;6.80;6.00;;;19.20;99.90;;;;;;5114602;28;20450;-71
2021/07/03 07:00:19;;;;;;;6.57;5.57;;;19.30;99.90;;;;;;5112676;28;20528;-71
2021/07/03 07:02:47;;;;;;;7.40;5.87;;;19.40;99.90;;;;;;5117446;27;20516;-71
2021/07/03 07:05:14;;;;;;;6.00;5.33;;;19.60;1.00;;;;;;5120176;27;20660;-71
2021/07/03 07:07:42;;;;;;;7.10;5.23;;;19.50;1.00;;;;;;5114164;27;20449;-71
2021/07/03 07:10:10;;;;;;;6.40;5.90;;;19.60;1.00;;;;;;5113327;28;20563;-71
2021/07/03 07:12:37;;;;;;;7.03;6.10;;;19.70;1.00;;;;;;5112706;28;20869;-71
2021/07/03 07:15:05;;;;;;;7.57;6.10;;;19.80;1.00;;;;;;5112869;28;20526;-71
2021/07/03 07:17:32;;;;;;;6.30;5.70;;;19.70;1.00;;;;;;5120831;27;20439;-71
2021/07/03 07:19:59;;;;;;;8.50;6.37;;;19.80;1.00;;;;;;5127095;27;20440;-71
2021/07/03 07:22:26;;;;;;;6.53;5.47;;;19.80;1.00;;;;;;5123046;27;20530;-71
2021/07/03 07:24:54;;;;;;;8.70;6.17;;;19.90;1.00;;;;;;5129827;27;20534;-71
2021/07/03 07:27:21;;;;;;;7.00;5.87;;;20.00;1.00;;;;;;5113064;28;20538;-71
2021/07/03 07:29:48;;;;;;;7.80;5.57;;;20.10;44.80;;;;;;5113571;28;20591;-71
2021/07/03 07:32:15;;;;;;;8.53;6.73;;;20.10;99.90;;;;;;5128173;27;20534;-71
2021/07/03 07:34:43;;;;;;;7.60;6.57;;;20.30;1.00;;;;;;5119679;28;21015;-71
2021/07/03 07:37:09;;;;;;;7.27;6.53;;;20.40;1.00;;;;;;5108167;27;20543;-71
2021/07/03 07:39:36;;;;;;;6.30;5.53;;;20.40;1.00;;;;;;5128160;27;20531;-71
2021/07/03 07:42:05;;;;;;;6.33;5.73;;;20.40;1.00;;;;;;5122456;27;20442;-73
2021/07/03 07:44:32;;;;;;;6.17;5.57;;;20.50;1.00;;;;;;5116779;27;21011;-70
2021/07/03 07:46:59;;;;;;;6.60;5.80;;;20.40;1.00;;;;;;5111919;28;20962;-70
2021/07/03 07:49:25;;;;;;;7.73;6.23;;;20.50;1.00;;;;;;5110207;27;20566;-70
2021/07/03 07:51:52;;;;;;;5.63;5.10;;;20.70;99.90;;;;;;5114628;27;20539;-71
2021/07/03 07:54:19;;;;;;;8.40;6.43;;;20.80;99.90;;;;;;5113750;27;20479;-69
2021/07/03 07:56:46;;;;;;;6.17;5.57;;;20.80;99.90;;;;;;5112455;27;20444;-71
2021/07/03 07:59:14;;;;;;;6.90;6.20;;;20.80;99.90;;;;;;5100823;28;20492;-70
2021/07/03 08:01:41;;;;;;;6.00;5.50;;;20.90;99.90;;;;;;5099968;27;21020;-69
2021/07/03 08:04:08;;;;;;;6.53;5.80;;;20.90;24.70;;;;;;5107854;28;20477;-69
2021/07/03 08:06:35;;;;;;;7.30;6.30;;;21.00;1.00;;;;;;5112665;28;20546;-69
2021/07/03 08:09:02;;;;;;;6.40;5.50;;;21.10;1.00;;;;;;5111610;28;20479;-68
2021/07/03 08:11:29;;;;;;;6.27;5.70;;;21.00;1.00;;;;;;5113078;28;20504;-70
2021/07/03 08:13:56;;;;;;;8.20;6.27;;;20.90;1.00;;;;;;5112233;28;20444;-70
2021/07/03 08:16:24;;;;;;;6.10;4.60;;;20.90;1.00;;;;;;5122027;27;20450;-69
2021/07/03 08:18:51;;;;;;;8.50;6.10;;;21.10;1.00;;;;;;5111978;27;20537;-70
2021/07/03 08:21:18;;;;;;;8.40;6.20;;;21.10;1.00;;;;;;5110876;28;20562;-69
2021/07/03 08:23:45;;;;;;;5.73;4.77;;;21.20;1.00;;;;;;5112232;27;20527;-69
2021/07/03 08:26:12;;;;;;;6.03;5.40;;;21.30;1.00;;;;;;5110543;28;20923;-71
2021/07/03 08:28:40;;;;;;;6.43;5.90;;;21.50;1.00;;;;;;5115580;27;20441;-72
2021/07/03 08:31:06;;;;;;;6.23;5.30;;;21.50;99.90;;;;;;5105611;27;20475;-70
2021/07/03 08:33:35;;;;;;;6.53;5.90;;;21.50;99.90;;;;;;5128183;27;20940;-70
2021/07/03 08:36:02;;;;;;;5.93;5.33;;;21.60;99.90;;;;;;5129640;27;20519;-70
2021/07/03 08:38:29;;;;;;;6.20;5.17;;;21.60;99.90;;;;;;5112483;28;20514;-70
2021/07/03 08:40:56;;;;;;;4.97;4.50;;;21.70;99.90;;;;;;5112224;28;20486;-70
2021/07/03 08:43:24;;;;;;;5.60;4.83;;;21.80;99.90;;;;;;5111393;28;20994;-70
2021/07/03 08:45:56;;;;;;;5.20;4.70;;;22.10;99.90;;;;;;5112064;28;20493;-70
2021/07/03 08:48:23;;;;;;;4.57;4.17;;;22.20;99.90;;;;;;5111895;28;20432;-70
2021/07/03 08:50:52;;;;;;;4.80;4.40;;;22.20;99.90;;;;;;5112338;28;20502;-70
2021/07/03 08:53:22;;;;;;;5.57;4.87;;;22.20;99.90;;;;;;5111210;28;20523;-70
2021/07/03 08:55:49;;;;;;;6.17;5.00;;;22.10;99.90;;;;;;5112009;28;20440;-70
2021/07/03 08:58:16;;;;;;;7.83;5.13;;;22.20;99.90;;;;;;5107009;28;20498;-70
2021/07/03 09:00:46;;;;;;;5.67;5.10;;;22.30;99.90;;;;;;5105751;28;20450;-70
2021/07/03 09:03:14;;;;;;;5.43;4.93;;;22.40;99.90;;;;;;5110870;28;20467;-70
2021/07/03 09:05:42;;;;;;;7.10;5.00;;;22.60;99.90;;;;;;5113283;27;20443;-70
2021/07/03 09:08:12;;;;;;;7.43;5.40;;;22.50;99.90;;;;;;5132077;27;20522;-70
2021/07/03 09:10:40;;;;;;;4.93;4.43;;;22.60;99.90;;;;;;5132471;27;20922;-70
2021/07/03 09:13:07;;;;;;;4.90;4.40;;;22.60;99.90;;;;;;5131606;27;20442;-70
2021/07/03 09:15:36;;;;;;;6.10;5.50;;;22.70;99.90;;;;;;5132058;27;20887;-70
2021/07/03 09:18:04;;;;;;;5.80;4.90;;;22.80;99.90;;;;;;5131819;27;20457;-71
2021/07/03 09:20:34;;;;;;;5.07;4.40;;;22.60;99.90;;;;;;5132347;27;20446;-70
2021/07/03 09:23:13;;;;;;;6.47;5.00;;;22.50;99.90;;;;;;5132157;27;20481;-70
2021/07/03 09:25:43;;;;;;;6.33;5.60;;;22.70;99.90;;;;;;5132481;27;20521;-70
2021/07/03 09:28:16;;;;;;;5.20;4.53;;;22.80;99.90;;;;;;5131502;27;20450;-70
2021/07/03 09:30:44;;;;;;;4.83;4.27;;;23.10;99.90;;;;;;5132273;27;20482;-70
2021/07/03 09:33:16;;;;;;;6.37;4.83;;;22.90;99.90;;;;;;5131383;27;20893;-70
2021/07/03 09:35:43;;;;;;;4.63;4.23;;;23.00;99.90;;;;;;5131693;27;20517;-70
2021/07/03 09:38:10;;;;;;;5.03;4.50;;;23.00;99.90;;;;;;5131603;28;20881;-70
2021/07/03 09:40:38;;;;;;;6.57;4.80;;;23.10;99.90;;;;;;5132373;28;20499;-69
2021/07/03 09:43:08;;;;;;;7.10;4.47;;;23.20;99.90;;;;;;5131043;28;20499;-70
2021/07/03 09:45:36;;;;;;;5.30;4.80;;;23.30;99.90;;;;;;5132185;28;20450;-70
2021/07/03 09:48:04;;;;;;;5.47;4.43;;;23.40;99.90;;;;;;5131188;28;20527;-71
2021/07/03 09:50:32;;;;;;;5.17;4.70;;;23.50;99.90;;;;;;5131879;28;20478;-70
2021/07/03 09:53:01;;;;;;;4.77;4.37;;;23.50;99.90;;;;;;5099833;28;20923;-70
2021/07/03 09:55:28;;;;;;;4.83;4.43;;;23.60;99.90;;;;;;5111789;28;20451;-70
2021/07/03 09:57:58;;;;;;;6.03;5.33;;;23.70;99.90;;;;;;5110016;28;20527;-70
2021/07/03 10:00:25;;;;;;;4.17;3.80;;;23.60;99.90;;;;;;5102150;28;20444;-70
2021/07/03 10:02:53;;;;;;;5.10;4.70;;;23.50;99.90;;;;;;5110470;28;20574;-70
2021/07/03 10:05:22;;;;;;;5.23;3.87;;;23.80;99.90;;;;;;5110986;28;20790;-70
2021/07/03 10:07:54;;;;;;;5.63;4.30;;;24.10;99.90;;;;;;5111119;28;20479;-70
2021/07/03 10:10:24;;;;;;;4.93;4.53;;;24.20;99.90;;;;;;5110937;28;20514;-70
2021/07/03 10:13:01;;;;;;;6.23;5.33;;;24.10;99.90;;;;;;5110943;28;20530;-69
2021/07/03 10:15:32;;;;;;;4.60;4.20;;;24.20;99.90;;;;;;5111048;28;20530;-71
2021/07/03 10:18:15;;;;;;;4.90;4.40;;;23.90;99.90;;;;;;5111106;28;20488;-70
2021/07/03 10:20:42;;;;;;;5.40;4.90;;;23.80;99.90;;;;;;5110896;28;20443;-70
2021/07/03 10:23:09;;;;;;;5.20;4.80;;;24.00;99.90;;;;;;5121276;28;21005;-70
2021/07/03 10:25:38;;;;;;;5.03;4.60;;;24.30;99.90;;;;;;5131775;28;20824;-70
2021/07/03 10:28:08;;;;;;;5.50;5.00;;;24.30;99.90;;;;;;5131151;28;20446;-70
2021/07/03 10:30:39;;;;;;;5.60;4.47;;;24.70;99.90;;;;;;5136490;28;20475;-70
2021/07/03 10:33:12;;;;;;;6.13;4.50;;;24.80;99.90;;;;;;5130946;28;20537;-70
2021/07/03 10:35:45;;;;;;;5.23;4.73;;;24.90;99.90;;;;;;5131444;28;20445;-70
2021/07/03 10:38:20;;;;;;;5.17;4.77;;;24.90;99.90;;;;;;5131137;28;20867;-70
2021/07/03 10:40:47;;;;;;;5.00;4.53;;;24.90;99.90;;;;;;5131195;28;20525;-70
2021/07/03 10:43:16;;;;;;;5.40;4.90;;;24.60;99.90;;;;;;5130674;28;20447;-70
2021/07/03 10:45:49;;;;;;;4.90;4.37;;;24.80;99.90;;;;;;5131335;28;20934;-70
2021/07/03 10:48:21;;;;;;;4.67;4.27;;;25.00;99.90;;;;;;5133724;27;20530;-70
2021/07/03 10:50:49;;;;;;;7.27;4.90;;;25.00;99.90;;;;;;5134312;27;21041;-70
2021/07/03 10:53:25;;;;;;;4.83;4.33;;;25.00;99.90;;;;;;5100640;27;20527;-70
2021/07/03 10:55:52;;;;;;;5.90;4.60;;;25.10;99.90;;;;;;5129017;27;20487;-70
2021/07/03 10:58:21;;;;;;;5.53;4.40;;;25.30;99.90;;;;;;5129479;27;20458;-70
2021/07/03 11:00:51;;;;;;;5.40;4.90;;;25.40;99.90;;;;;;5114024;28;20494;-70
2021/07/03 11:03:23;;;;;;;5.50;5.03;;;25.40;99.90;;;;;;5113522;28;20491;-70
2021/07/03 11:05:50;;;;;;;5.60;4.40;;;25.50;99.90;;;;;;5114047;28;20939;-70
2021/07/03 11:08:19;;;;;;;5.00;4.37;;;25.40;99.90;;;;;;5113630;28;20952;-70
2021/07/03 11:10:47;;;;;;;4.23;3.83;;;25.60;99.90;;;;;;5113792;28;20590;-70
2021/07/03 11:13:22;;;;;;;14.17;3.77;;;25.60;99.90;;;;;;5113538;28;20446;-70
2021/07/03 11:15:51;;;;;;;5.07;4.57;;;25.40;99.90;;;;;;5113827;28;20529;-70
2021/07/03 11:18:18;;;;;;;4.63;4.20;;;25.70;99.90;;;;;;5113652;28;20965;-70
2021/07/03 11:20:45;;;;;;;5.17;4.67;;;25.90;99.90;;;;;;5113486;28;20478;-70
2021/07/03 11:23:13;;;;;;;4.30;4.00;;;26.20;99.90;;;;;;5113439;28;20478;-70
2021/07/03 11:25:43;;;;;;;5.20;4.70;;;26.40;99.90;;;;;;5113938;28;20470;-70
2021/07/03 11:28:12;;;;;;;4.83;4.30;;;26.20;99.90;;;;;;5113149;28;20949;-70
2021/07/03 11:30:41;;;;;;;4.10;3.80;;;26.20;99.90;;;;;;5113933;27;20559;-70
2021/07/03 11:33:10;;;;;;;4.83;4.37;;;26.00;99.90;;;;;;5113473;28;20542;-71
2021/07/03 11:35:46;;;;;;;4.23;3.83;;;26.50;99.90;;;;;;5121489;27;21013;-70
2021/07/03 11:38:13;;;;;;;4.80;4.40;;;26.40;99.90;;;;;;5133503;27;20513;-70
2021/07/03 11:40:41;;;;;;;4.20;3.80;;;26.20;99.90;;;;;;5133791;27;20529;-70
2021/07/03 11:43:08;;;;;;;5.37;4.70;;;26.30;99.90;;;;;;5133372;27;20457;-71
2021/07/03 11:45:38;;;;;;;4.63;4.17;;;26.30;99.90;;;;;;5133956;27;20529;-70
2021/07/03 11:48:08;;;;;;;5.10;4.70;;;26.30;99.90;;;;;;5133789;27;20491;-71
2021/07/03 11:50:38;;;;;;;4.87;4.30;;;26.50;99.90;;;;;;5134175;27;20475;-70
2021/07/03 11:53:08;;;;;;;6.57;4.70;;;27.00;99.90;;;;;;5101150;27;20567;-70
2021/07/03 11:55:36;;;;;;;5.83;4.40;;;26.70;98.20;;;;;;5113354;28;20546;-70
2021/07/03 11:58:04;;;;;;;8.60;4.73;;;26.70;99.90;;;;;;5109551;28;20497;-71
2021/07/03 12:00:33;;;;;;;4.20;3.90;;;26.60;98.30;;;;;;5104723;28;20939;-70
2021/07/03 12:03:00;;;;;;;4.30;4.00;;;26.70;96.10;;;;;;5112345;27;20475;-70
2021/07/03 12:05:29;;;;;;;4.43;4.03;;;27.00;94.80;;;;;;5113518;28;20524;-70
2021/07/03 12:08:03;;;;;;;6.37;4.30;;;27.10;99.90;;;;;;5113458;28;20529;-70
2021/07/03 12:10:39;;;;;;;4.27;3.93;;;27.50;90.50;;;;;;5112789;28;21065;-70
2021/07/03 12:13:09;;;;;;;4.20;3.90;;;27.30;90.00;;;;;;5112568;28;20857;-70
2021/07/03 12:15:37;;;;;;;6.03;4.50;;;27.60;84.70;;;;;;5112986;28;20455;-70
2021/07/03 12:18:26;;;;;;;4.50;4.10;;;27.80;81.40;;;;;;5067438;28;20512;-70
2021/07/03 12:21:07;;;;;;;5.00;4.00;;;27.80;76.80;;;;;;5112770;28;20777;-70
2021/07/03 12:23:36;;;;;;;5.10;4.70;;;27.90;70.30;;;;;;5112544;28;20522;-70
2021/07/03 12:26:04;;;;;;;5.10;4.70;;;28.20;66.30;;;;;;5112334;28;20530;-70
2021/07/03 12:28:31;;;;;;;4.63;4.23;;;27.80;67.30;;;;;;5112781;28;20534;-70
2021/07/03 12:31:09;;;;;;;4.50;4.10;;;27.40;68.60;;;;;;5112031;28;20668;-70
2021/07/03 12:33:36;;;;;;;3.87;3.57;;;27.30;70.90;;;;;;5112827;28;20538;-70
2021/07/03 12:36:04;;;;;;;4.17;3.80;;;27.50;65.20;;;;;;5112190;28;20443;-70
2021/07/03 12:38:31;;;;;;;4.13;3.73;;;28.10;65.20;;;;;;5112655;28;20522;-70
2021/07/03 12:41:00;;;;;;;4.20;3.80;;;27.80;56.80;;;;;;5112315;28;20529;-70
2021/07/03 12:43:31;;;;;;;3.70;3.40;;;28.00;54.20;;;;;;5112193;28;20517;-70
2021/07/03 12:46:02;;;;;;;4.87;4.00;;;27.70;52.10;;;;;;5112607;28;20447;-70
2021/07/03 12:48:36;;;;;;;4.13;3.83;;;27.70;48.40;;;;;;5112175;28;20451;-70